sensor_id;sensor_type;location;lat;lon;timestamp;P1;durP1;ratioP1;P2;durP2;ratioP2
26872;SDS011;14445;53.056;4.804;2022-07-23T00:00:27;1.33;;;1.23;;
26872;SDS011;14445;53.056;4.804;2022-07-23T00:02:53;1.35;;;1.25;;
26872;SDS011;14445;53.056;4.804;2022-07-23T00:05:18;1.48;;;1.20;;
26872;SDS011;14445;53.056;4.804;2022-07-23T00:07:44;1.38;;;1.10;;
26872;SDS011;14445;53.056;4.804;2022-07-23T00:10:09;1.23;;;1.10;;
26872;SDS011;14445;53.056;4.804;2022-07-23T00:12:35;1.30;;;1.20;;
26872;SDS011;14445;53.056;4.804;2022-07-23T00:15:02;1.63;;;1.23;;
26872;SDS011;14445;53.056;4.804;2022-07-23T00:17:28;1.67;;;1.30;;
26872;SDS011;14445;53.056;4.804;2022-07-23T00:19:54;1.40;;;1.30;;
26872;SDS011;14445;53.056;4.804;2022-07-23T00:22:19;1.48;;;1.38;;
26872;SDS011;14445;53.056;4.804;2022-07-23T00:24:45;1.30;;;1.20;;
26872;SDS011;14445;53.056;4.804;2022-07-23T00:27:10;1.50;;;1.30;;
26872;SDS011;14445;53.056;4.804;2022-07-23T00:29:36;1.95;;;1.48;;
26872;SDS011;14445;53.056;4.804;2022-07-23T00:32:01;1.70;;;1.23;;
26872;SDS011;14445;53.056;4.804;2022-07-23T00:34:27;1.10;;;1.00;;
26872;SDS011;14445;53.056;4.804;2022-07-23T00:36:53;1.30;;;1.20;;
26872;SDS011;14445;53.056;4.804;2022-07-23T00:39:19;1.40;;;1.30;;
26872;SDS011;14445;53.056;4.804;2022-07-23T00:41:46;1.50;;;1.33;;
26872;SDS011;14445;53.056;4.804;2022-07-23T00:44:15;1.48;;;1.27;;
26872;SDS011;14445;53.056;4.804;2022-07-23T00:46:46;1.70;;;1.25;;
26872;SDS011;14445;53.056;4.804;2022-07-23T00:49:12;1.02;;;1.00;;
26872;SDS011;14445;53.056;4.804;2022-07-23T00:51:38;1.20;;;1.10;;
26872;SDS011;14445;53.056;4.804;2022-07-23T00:54:03;1.38;;;1.27;;
26872;SDS011;14445;53.056;4.804;2022-07-23T00:56:29;1.30;;;1.20;;
26872;SDS011;14445;53.056;4.804;2022-07-23T00:58:55;1.20;;;1.10;;
26872;SDS011;14445;53.056;4.804;2022-07-23T01:01:22;2.47;;;1.20;;
26872;SDS011;14445;53.056;4.804;2022-07-23T01:03:47;1.17;;;1.08;;
26872;SDS011;14445;53.056;4.804;2022-07-23T01:06:13;1.30;;;1.20;;
26872;SDS011;14445;53.056;4.804;2022-07-23T01:08:39;1.13;;;1.02;;
26872;SDS011;14445;53.056;4.804;2022-07-23T01:11:05;1.33;;;1.20;;
26872;SDS011;14445;53.056;4.804;2022-07-23T01:13:32;1.25;;;1.15;;
26872;SDS011;14445;53.056;4.804;2022-07-23T01:15:57;1.63;;;1.50;;
26872;SDS011;14445;53.056;4.804;2022-07-23T01:18:23;1.92;;;1.60;;
26872;SDS011;14445;53.056;4.804;2022-07-23T01:20:48;1.80;;;1.70;;
26872;SDS011;14445;53.056;4.804;2022-07-23T01:23:14;1.70;;;1.60;;
26872;SDS011;14445;53.056;4.804;2022-07-23T01:25:47;1.90;;;1.70;;
26872;SDS011;14445;53.056;4.804;2022-07-23T01:28:21;1.83;;;1.70;;
26872;SDS011;14445;53.056;4.804;2022-07-23T01:30:47;1.70;;;1.60;;
26872;SDS011;14445;53.056;4.804;2022-07-23T01:33:13;2.00;;;1.80;;
26872;SDS011;14445;53.056;4.804;2022-07-23T01:35:39;1.70;;;1.60;;
26872;SDS011;14445;53.056;4.804;2022-07-23T01:38:05;1.80;;;1.70;;
26872;SDS011;14445;53.056;4.804;2022-07-23T01:40:30;1.60;;;1.50;;
26872;SDS011;14445;53.056;4.804;2022-07-23T01:42:56;1.80;;;1.70;;
26872;SDS011;14445;53.056;4.804;2022-07-23T01:45:22;1.95;;;1.80;;
26872;SDS011;14445;53.056;4.804;2022-07-23T01:47:47;1.83;;;1.63;;
26872;SDS011;14445;53.056;4.804;2022-07-23T01:50:13;1.95;;;1.80;;
26872;SDS011;14445;53.056;4.804;2022-07-23T01:52:39;1.60;;;1.50;;
26872;SDS011;14445;53.056;4.804;2022-07-23T01:55:05;1.65;;;1.55;;
26872;SDS011;14445;53.056;4.804;2022-07-23T01:57:31;1.60;;;1.50;;
26872;SDS011;14445;53.056;4.804;2022-07-23T01:59:57;2.30;;;1.80;;
26872;SDS011;14445;53.056;4.804;2022-07-23T02:02:22;1.83;;;1.73;;
26872;SDS011;14445;53.056;4.804;2022-07-23T02:04:48;1.50;;;1.40;;
26872;SDS011;14445;53.056;4.804;2022-07-23T02:07:13;1.67;;;1.45;;
26872;SDS011;14445;53.056;4.804;2022-07-23T02:09:39;2.15;;;1.40;;
26872;SDS011;14445;53.056;4.804;2022-07-23T02:12:04;2.10;;;1.67;;
26872;SDS011;14445;53.056;4.804;2022-07-23T02:14:30;1.58;;;1.40;;
26872;SDS011;14445;53.056;4.804;2022-07-23T02:16:56;1.50;;;1.40;;
26872;SDS011;14445;53.056;4.804;2022-07-23T02:19:21;1.33;;;1.23;;
26872;SDS011;14445;53.056;4.804;2022-07-23T02:21:47;1.55;;;1.40;;
26872;SDS011;14445;53.056;4.804;2022-07-23T02:24:12;1.33;;;1.23;;
26872;SDS011;14445;53.056;4.804;2022-07-23T02:26:38;1.48;;;1.38;;
26872;SDS011;14445;53.056;4.804;2022-07-23T02:29:04;1.40;;;1.30;;
26872;SDS011;14445;53.056;4.804;2022-07-23T02:31:30;1.60;;;1.50;;
26872;SDS011;14445;53.056;4.804;2022-07-23T02:33:56;1.40;;;1.30;;
26872;SDS011;14445;53.056;4.804;2022-07-23T02:36:21;1.57;;;1.47;;
26872;SDS011;14445;53.056;4.804;2022-07-23T02:38:47;2.17;;;1.30;;
26872;SDS011;14445;53.056;4.804;2022-07-23T02:41:13;1.48;;;1.33;;
26872;SDS011;14445;53.056;4.804;2022-07-23T02:43:39;1.30;;;1.20;;
26872;SDS011;14445;53.056;4.804;2022-07-23T02:46:04;1.30;;;1.20;;
26872;SDS011;14445;53.056;4.804;2022-07-23T02:48:30;1.38;;;1.25;;
26872;SDS011;14445;53.056;4.804;2022-07-23T02:50:55;1.30;;;1.20;;
26872;SDS011;14445;53.056;4.804;2022-07-23T02:53:21;1.27;;;1.10;;
26872;SDS011;14445;53.056;4.804;2022-07-23T02:55:47;1.53;;;1.20;;
26872;SDS011;14445;53.056;4.804;2022-07-23T02:58:13;1.17;;;1.07;;
26872;SDS011;14445;53.056;4.804;2022-07-23T03:00:39;1.43;;;1.30;;
26872;SDS011;14445;53.056;4.804;2022-07-23T03:03:04;1.23;;;1.10;;
26872;SDS011;14445;53.056;4.804;2022-07-23T03:05:31;1.30;;;1.20;;
26872;SDS011;14445;53.056;4.804;2022-07-23T03:07:57;1.43;;;1.20;;
26872;SDS011;14445;53.056;4.804;2022-07-23T03:10:22;1.17;;;1.10;;
26872;SDS011;14445;53.056;4.804;2022-07-23T03:12:48;1.00;;;1.00;;
26872;SDS011;14445;53.056;4.804;2022-07-23T03:15:13;1.40;;;1.30;;
26872;SDS011;14445;53.056;4.804;2022-07-23T03:17:39;1.30;;;1.20;;
26872;SDS011;14445;53.056;4.804;2022-07-23T03:20:04;1.37;;;1.27;;
26872;SDS011;14445;53.056;4.804;2022-07-23T03:22:30;1.40;;;1.20;;
26872;SDS011;14445;53.056;4.804;2022-07-23T03:24:56;1.43;;;1.13;;
26872;SDS011;14445;53.056;4.804;2022-07-23T03:27:22;1.20;;;1.10;;
26872;SDS011;14445;53.056;4.804;2022-07-23T03:29:49;1.30;;;1.20;;
26872;SDS011;14445;53.056;4.804;2022-07-23T03:32:15;1.10;;;1.00;;
26872;SDS011;14445;53.056;4.804;2022-07-23T03:34:41;1.20;;;1.10;;
26872;SDS011;14445;53.056;4.804;2022-07-23T03:37:06;1.20;;;1.10;;
26872;SDS011;14445;53.056;4.804;2022-07-23T03:39:32;1.47;;;1.00;;
26872;SDS011;14445;53.056;4.804;2022-07-23T03:41:57;1.37;;;1.10;;
26872;SDS011;14445;53.056;4.804;2022-07-23T03:44:23;1.20;;;1.10;;
26872;SDS011;14445;53.056;4.804;2022-07-23T03:46:48;1.43;;;1.30;;
26872;SDS011;14445;53.056;4.804;2022-07-23T03:49:14;1.20;;;1.10;;
26872;SDS011;14445;53.056;4.804;2022-07-23T03:51:39;1.00;;;1.00;;
26872;SDS011;14445;53.056;4.804;2022-07-23T03:54:05;1.23;;;1.00;;
26872;SDS011;14445;53.056;4.804;2022-07-23T03:56:31;1.20;;;1.10;;
26872;SDS011;14445;53.056;4.804;2022-07-23T03:58:56;1.20;;;1.10;;
26872;SDS011;14445;53.056;4.804;2022-07-23T04:01:22;1.20;;;1.10;;
26872;SDS011;14445;53.056;4.804;2022-07-23T04:03:47;1.30;;;1.20;;
26872;SDS011;14445;53.056;4.804;2022-07-23T04:06:13;1.20;;;1.10;;
26872;SDS011;14445;53.056;4.804;2022-07-23T04:08:38;0.93;;;0.93;;
26872;SDS011;14445;53.056;4.804;2022-07-23T04:11:04;0.85;;;0.85;;
26872;SDS011;14445;53.056;4.804;2022-07-23T04:13:29;1.27;;;1.10;;
26872;SDS011;14445;53.056;4.804;2022-07-23T04:15:55;1.20;;;1.10;;
26872;SDS011;14445;53.056;4.804;2022-07-23T04:18:20;0.98;;;0.90;;
26872;SDS011;14445;53.056;4.804;2022-07-23T04:20:48;1.10;;;1.00;;
26872;SDS011;14445;53.056;4.804;2022-07-23T04:23:16;0.80;;;0.80;;
26872;SDS011;14445;53.056;4.804;2022-07-23T04:25:41;1.17;;;1.00;;
26872;SDS011;14445;53.056;4.804;2022-07-23T04:28:07;0.93;;;0.90;;
26872;SDS011;14445;53.056;4.804;2022-07-23T04:30:33;0.80;;;0.80;;
26872;SDS011;14445;53.056;4.804;2022-07-23T04:32:58;0.90;;;0.90;;
26872;SDS011;14445;53.056;4.804;2022-07-23T04:35:24;0.95;;;0.90;;
26872;SDS011;14445;53.056;4.804;2022-07-23T04:37:49;0.80;;;0.80;;
26872;SDS011;14445;53.056;4.804;2022-07-23T04:40:15;0.98;;;0.90;;
26872;SDS011;14445;53.056;4.804;2022-07-23T04:42:41;0.90;;;0.80;;
26872;SDS011;14445;53.056;4.804;2022-07-23T04:45:06;1.08;;;0.88;;
26872;SDS011;14445;53.056;4.804;2022-07-23T04:47:32;0.75;;;0.75;;
26872;SDS011;14445;53.056;4.804;2022-07-23T04:49:58;1.33;;;0.90;;
26872;SDS011;14445;53.056;4.804;2022-07-23T04:52:23;1.25;;;0.80;;
26872;SDS011;14445;53.056;4.804;2022-07-23T04:54:49;1.35;;;0.80;;
26872;SDS011;14445;53.056;4.804;2022-07-23T04:57:15;0.82;;;0.82;;
26872;SDS011;14445;53.056;4.804;2022-07-23T04:59:40;0.80;;;0.80;;
26872;SDS011;14445;53.056;4.804;2022-07-23T05:02:06;0.80;;;0.80;;
26872;SDS011;14445;53.056;4.804;2022-07-23T05:04:31;0.90;;;0.80;;
26872;SDS011;14445;53.056;4.804;2022-07-23T05:06:57;0.90;;;0.80;;
26872;SDS011;14445;53.056;4.804;2022-07-23T05:09:23;0.80;;;0.80;;
26872;SDS011;14445;53.056;4.804;2022-07-23T05:11:48;1.15;;;0.80;;
26872;SDS011;14445;53.056;4.804;2022-07-23T05:14:14;1.17;;;0.85;;
26872;SDS011;14445;53.056;4.804;2022-07-23T05:16:40;1.20;;;0.70;;
26872;SDS011;14445;53.056;4.804;2022-07-23T05:19:05;0.60;;;0.60;;
26872;SDS011;14445;53.056;4.804;2022-07-23T05:21:31;0.80;;;0.80;;
26872;SDS011;14445;53.056;4.804;2022-07-23T05:23:56;0.70;;;0.70;;
26872;SDS011;14445;53.056;4.804;2022-07-23T05:26:22;0.82;;;0.70;;
26872;SDS011;14445;53.056;4.804;2022-07-23T05:28:47;0.98;;;0.63;;
26872;SDS011;14445;53.056;4.804;2022-07-23T05:31:13;0.70;;;0.70;;
26872;SDS011;14445;53.056;4.804;2022-07-23T05:33:39;0.75;;;0.60;;
26872;SDS011;14445;53.056;4.804;2022-07-23T05:36:04;0.80;;;0.70;;
26872;SDS011;14445;53.056;4.804;2022-07-23T05:38:31;0.88;;;0.70;;
26872;SDS011;14445;53.056;4.804;2022-07-23T05:40:57;1.10;;;0.60;;
26872;SDS011;14445;53.056;4.804;2022-07-23T05:43:22;0.70;;;0.70;;
26872;SDS011;14445;53.056;4.804;2022-07-23T05:45:48;1.25;;;0.75;;
26872;SDS011;14445;53.056;4.804;2022-07-23T05:48:14;0.63;;;0.60;;
26872;SDS011;14445;53.056;4.804;2022-07-23T05:50:39;0.73;;;0.70;;
26872;SDS011;14445;53.056;4.804;2022-07-23T05:53:05;1.10;;;0.80;;
26872;SDS011;14445;53.056;4.804;2022-07-23T05:55:30;0.68;;;0.60;;
26872;SDS011;14445;53.056;4.804;2022-07-23T05:57:56;1.05;;;0.60;;
26872;SDS011;14445;53.056;4.804;2022-07-23T06:00:25;1.42;;;0.80;;
26872;SDS011;14445;53.056;4.804;2022-07-23T06:02:51;0.55;;;0.55;;
26872;SDS011;14445;53.056;4.804;2022-07-23T06:05:17;1.05;;;0.68;;
26872;SDS011;14445;53.056;4.804;2022-07-23T06:07:43;0.80;;;0.70;;
26872;SDS011;14445;53.056;4.804;2022-07-23T06:10:08;0.70;;;0.70;;
26872;SDS011;14445;53.056;4.804;2022-07-23T06:12:34;0.60;;;0.60;;
26872;SDS011;14445;53.056;4.804;2022-07-23T06:15:00;1.20;;;0.63;;
26872;SDS011;14445;53.056;4.804;2022-07-23T06:17:26;0.60;;;0.60;;
26872;SDS011;14445;53.056;4.804;2022-07-23T06:19:52;1.83;;;0.70;;
26872;SDS011;14445;53.056;4.804;2022-07-23T06:22:18;0.93;;;0.60;;
26872;SDS011;14445;53.056;4.804;2022-07-23T06:24:44;0.73;;;0.63;;
26872;SDS011;14445;53.056;4.804;2022-07-23T06:27:09;1.38;;;0.70;;
26872;SDS011;14445;53.056;4.804;2022-07-23T06:29:35;1.52;;;0.70;;
26872;SDS011;14445;53.056;4.804;2022-07-23T06:32:00;1.05;;;0.60;;
26872;SDS011;14445;53.056;4.804;2022-07-23T06:34:26;1.23;;;0.80;;
26872;SDS011;14445;53.056;4.804;2022-07-23T06:36:52;0.63;;;0.60;;
26872;SDS011;14445;53.056;4.804;2022-07-23T06:39:17;1.67;;;0.80;;
26872;SDS011;14445;53.056;4.804;2022-07-23T06:41:43;1.38;;;0.60;;
26872;SDS011;14445;53.056;4.804;2022-07-23T06:44:08;1.60;;;0.70;;
26872;SDS011;14445;53.056;4.804;2022-07-23T06:46:34;1.20;;;0.70;;
26872;SDS011;14445;53.056;4.804;2022-07-23T06:49:00;1.70;;;0.80;;
26872;SDS011;14445;53.056;4.804;2022-07-23T06:51:25;0.80;;;0.60;;
26872;SDS011;14445;53.056;4.804;2022-07-23T06:53:51;1.45;;;0.68;;
26872;SDS011;14445;53.056;4.804;2022-07-23T06:56:17;1.08;;;0.73;;
26872;SDS011;14445;53.056;4.804;2022-07-23T06:58:42;0.75;;;0.75;;
26872;SDS011;14445;53.056;4.804;2022-07-23T07:01:08;0.80;;;0.70;;
26872;SDS011;14445;53.056;4.804;2022-07-23T07:03:33;2.00;;;0.85;;
26872;SDS011;14445;53.056;4.804;2022-07-23T07:05:59;1.15;;;0.65;;
26872;SDS011;14445;53.056;4.804;2022-07-23T07:08:24;1.42;;;0.70;;
26872;SDS011;14445;53.056;4.804;2022-07-23T07:10:50;1.50;;;0.90;;
26872;SDS011;14445;53.056;4.804;2022-07-23T07:13:16;0.60;;;0.60;;
26872;SDS011;14445;53.056;4.804;2022-07-23T07:15:41;0.90;;;0.80;;
26872;SDS011;14445;53.056;4.804;2022-07-23T07:18:07;0.93;;;0.70;;
26872;SDS011;14445;53.056;4.804;2022-07-23T07:20:32;1.23;;;0.70;;
26872;SDS011;14445;53.056;4.804;2022-07-23T07:22:58;0.60;;;0.60;;
26872;SDS011;14445;53.056;4.804;2022-07-23T07:25:24;0.98;;;0.60;;
26872;SDS011;14445;53.056;4.804;2022-07-23T07:27:49;0.82;;;0.60;;
26872;SDS011;14445;53.056;4.804;2022-07-23T07:30:15;0.60;;;0.60;;
26872;SDS011;14445;53.056;4.804;2022-07-23T07:32:41;0.60;;;0.60;;
26872;SDS011;14445;53.056;4.804;2022-07-23T07:35:07;0.52;;;0.52;;
26872;SDS011;14445;53.056;4.804;2022-07-23T07:37:33;0.60;;;0.60;;
26872;SDS011;14445;53.056;4.804;2022-07-23T07:39:59;0.70;;;0.60;;
26872;SDS011;14445;53.056;4.804;2022-07-23T07:42:25;0.57;;;0.55;;
26872;SDS011;14445;53.056;4.804;2022-07-23T07:44:50;0.60;;;0.60;;
26872;SDS011;14445;53.056;4.804;2022-07-23T07:47:16;0.60;;;0.60;;
26872;SDS011;14445;53.056;4.804;2022-07-23T07:49:42;0.80;;;0.60;;
26872;SDS011;14445;53.056;4.804;2022-07-23T07:52:08;1.50;;;0.65;;
26872;SDS011;14445;53.056;4.804;2022-07-23T07:54:34;0.60;;;0.60;;
26872;SDS011;14445;53.056;4.804;2022-07-23T07:56:59;0.57;;;0.57;;
26872;SDS011;14445;53.056;4.804;2022-07-23T07:59:25;0.85;;;0.65;;
26872;SDS011;14445;53.056;4.804;2022-07-23T08:01:51;0.75;;;0.60;;
26872;SDS011;14445;53.056;4.804;2022-07-23T08:04:16;1.30;;;0.60;;
26872;SDS011;14445;53.056;4.804;2022-07-23T08:06:42;0.70;;;0.50;;
26872;SDS011;14445;53.056;4.804;2022-07-23T08:09:07;0.95;;;0.60;;
26872;SDS011;14445;53.056;4.804;2022-07-23T08:11:33;0.50;;;0.50;;
26872;SDS011;14445;53.056;4.804;2022-07-23T08:13:59;0.65;;;0.55;;
26872;SDS011;14445;53.056;4.804;2022-07-23T08:16:25;0.50;;;0.50;;
26872;SDS011;14445;53.056;4.804;2022-07-23T08:18:50;1.05;;;0.65;;
26872;SDS011;14445;53.056;4.804;2022-07-23T08:21:16;0.50;;;0.50;;
26872;SDS011;14445;53.056;4.804;2022-07-23T08:23:42;1.10;;;0.50;;
26872;SDS011;14445;53.056;4.804;2022-07-23T08:26:07;0.60;;;0.60;;
26872;SDS011;14445;53.056;4.804;2022-07-23T08:28:33;1.27;;;0.60;;
26872;SDS011;14445;53.056;4.804;2022-07-23T08:30:58;0.60;;;0.60;;
26872;SDS011;14445;53.056;4.804;2022-07-23T08:33:24;0.70;;;0.60;;
26872;SDS011;14445;53.056;4.804;2022-07-23T08:35:50;0.57;;;0.57;;
26872;SDS011;14445;53.056;4.804;2022-07-23T08:38:18;0.60;;;0.50;;
26872;SDS011;14445;53.056;4.804;2022-07-23T08:40:46;0.57;;;0.57;;
26872;SDS011;14445;53.056;4.804;2022-07-23T08:43:20;0.52;;;0.52;;
26872;SDS011;14445;53.056;4.804;2022-07-23T08:45:50;0.90;;;0.70;;
26872;SDS011;14445;53.056;4.804;2022-07-23T08:48:18;0.50;;;0.50;;
26872;SDS011;14445;53.056;4.804;2022-07-23T08:50:49;0.50;;;0.50;;
26872;SDS011;14445;53.056;4.804;2022-07-23T08:53:16;0.55;;;0.55;;
26872;SDS011;14445;53.056;4.804;2022-07-23T08:55:44;0.50;;;0.50;;
26872;SDS011;14445;53.056;4.804;2022-07-23T08:58:10;0.60;;;0.60;;
26872;SDS011;14445;53.056;4.804;2022-07-23T09:00:36;0.60;;;0.60;;
26872;SDS011;14445;53.056;4.804;2022-07-23T09:03:02;0.50;;;0.50;;
26872;SDS011;14445;53.056;4.804;2022-07-23T09:05:28;0.60;;;0.50;;
26872;SDS011;14445;53.056;4.804;2022-07-23T09:10:42;0.60;;;0.60;;
26872;SDS011;14445;53.056;4.804;2022-07-23T09:13:21;0.60;;;0.50;;
26872;SDS011;14445;53.056;4.804;2022-07-23T09:15:49;0.60;;;0.60;;
26872;SDS011;14445;53.056;4.804;2022-07-23T09:18:16;0.57;;;0.57;;
26872;SDS011;14445;53.056;4.804;2022-07-23T09:20:43;0.60;;;0.60;;
26872;SDS011;14445;53.056;4.804;2022-07-23T09:23:09;0.70;;;0.65;;
26872;SDS011;14445;53.056;4.804;2022-07-23T09:25:34;0.50;;;0.50;;
26872;SDS011;14445;53.056;4.804;2022-07-23T09:28:01;0.50;;;0.50;;
26872;SDS011;14445;53.056;4.804;2022-07-23T09:30:31;0.77;;;0.65;;
26872;SDS011;14445;53.056;4.804;2022-07-23T09:33:10;0.60;;;0.60;;
26872;SDS011;14445;53.056;4.804;2022-07-23T09:35:44;0.60;;;0.60;;
26872;SDS011;14445;53.056;4.804;2022-07-23T09:38:10;0.60;;;0.60;;
26872;SDS011;14445;53.056;4.804;2022-07-23T09:40:36;0.70;;;0.68;;
26872;SDS011;14445;53.056;4.804;2022-07-23T09:43:02;0.73;;;0.52;;
26872;SDS011;14445;53.056;4.804;2022-07-23T09:45:27;0.60;;;0.60;;
26872;SDS011;14445;53.056;4.804;2022-07-23T09:48:09;0.60;;;0.60;;
26872;SDS011;14445;53.056;4.804;2022-07-23T09:50:44;0.60;;;0.60;;
26872;SDS011;14445;53.056;4.804;2022-07-23T09:53:23;1.50;;;0.70;;
26872;SDS011;14445;53.056;4.804;2022-07-23T09:55:50;0.50;;;0.50;;
26872;SDS011;14445;53.056;4.804;2022-07-23T09:58:19;1.00;;;0.60;;
26872;SDS011;14445;53.056;4.804;2022-07-23T10:00:47;0.57;;;0.50;;
26872;SDS011;14445;53.056;4.804;2022-07-23T10:03:14;0.52;;;0.52;;
26872;SDS011;14445;53.056;4.804;2022-07-23T10:05:42;0.55;;;0.55;;
26872;SDS011;14445;53.056;4.804;2022-07-23T10:08:08;1.08;;;0.60;;
26872;SDS011;14445;53.056;4.804;2022-07-23T10:10:38;0.55;;;0.50;;
26872;SDS011;14445;53.056;4.804;2022-07-23T10:13:05;0.50;;;0.50;;
26872;SDS011;14445;53.056;4.804;2022-07-23T10:15:50;0.80;;;0.60;;
26872;SDS011;14445;53.056;4.804;2022-07-23T10:18:16;0.57;;;0.57;;
26872;SDS011;14445;53.056;4.804;2022-07-23T10:20:42;0.60;;;0.60;;
26872;SDS011;14445;53.056;4.804;2022-07-23T10:23:18;0.70;;;0.70;;
26872;SDS011;14445;53.056;4.804;2022-07-23T10:25:57;0.88;;;0.80;;
26872;SDS011;14445;53.056;4.804;2022-07-23T10:31:50;0.65;;;0.57;;
26872;SDS011;14445;53.056;4.804;2022-07-23T10:37:59;0.60;;;0.60;;
26872;SDS011;14445;53.056;4.804;2022-07-23T10:40:32;0.80;;;0.70;;
26872;SDS011;14445;53.056;4.804;2022-07-23T10:42:58;0.60;;;0.60;;
26872;SDS011;14445;53.056;4.804;2022-07-23T10:45:35;0.77;;;0.70;;
26872;SDS011;14445;53.056;4.804;2022-07-23T10:50:40;0.60;;;0.60;;
26872;SDS011;14445;53.056;4.804;2022-07-23T10:58:02;0.93;;;0.65;;
26872;SDS011;14445;53.056;4.804;2022-07-23T11:00:30;1.00;;;0.60;;
26872;SDS011;14445;53.056;4.804;2022-07-23T11:02:57;0.65;;;0.60;;
26872;SDS011;14445;53.056;4.804;2022-07-23T11:05:25;0.60;;;0.60;;
26872;SDS011;14445;53.056;4.804;2022-07-23T11:26:47;0.77;;;0.50;;
26872;SDS011;14445;53.056;4.804;2022-07-23T11:31:52;0.60;;;0.60;;
26872;SDS011;14445;53.056;4.804;2022-07-23T11:34:34;0.70;;;0.70;;
26872;SDS011;14445;53.056;4.804;2022-07-23T11:37:03;1.05;;;0.70;;
26872;SDS011;14445;53.056;4.804;2022-07-23T11:39:31;0.60;;;0.60;;
26872;SDS011;14445;53.056;4.804;2022-07-23T11:41:58;0.85;;;0.75;;
26872;SDS011;14445;53.056;4.804;2022-07-23T11:44:31;1.48;;;0.80;;
26872;SDS011;14445;53.056;4.804;2022-07-23T11:46:57;0.60;;;0.60;;
26872;SDS011;14445;53.056;4.804;2022-07-23T11:49:25;1.00;;;0.80;;
26872;SDS011;14445;53.056;4.804;2022-07-23T11:52:08;0.82;;;0.70;;
26872;SDS011;14445;53.056;4.804;2022-07-23T11:54:47;0.68;;;0.68;;
26872;SDS011;14445;53.056;4.804;2022-07-23T11:57:24;0.60;;;0.60;;
26872;SDS011;14445;53.056;4.804;2022-07-23T11:59:52;0.63;;;0.60;;
26872;SDS011;14445;53.056;4.804;2022-07-23T12:02:20;0.60;;;0.60;;
26872;SDS011;14445;53.056;4.804;2022-07-23T12:04:48;0.70;;;0.70;;
26872;SDS011;14445;53.056;4.804;2022-07-23T12:09:58;0.70;;;0.70;;
26872;SDS011;14445;53.056;4.804;2022-07-23T12:12:25;0.60;;;0.60;;
26872;SDS011;14445;53.056;4.804;2022-07-23T12:17:18;0.90;;;0.80;;
26872;SDS011;14445;53.056;4.804;2022-07-23T12:19:45;0.80;;;0.70;;
26872;SDS011;14445;53.056;4.804;2022-07-23T12:22:13;0.60;;;0.60;;
26872;SDS011;14445;53.056;4.804;2022-07-23T12:24:58;0.77;;;0.60;;
26872;SDS011;14445;53.056;4.804;2022-07-23T12:27:25;0.60;;;0.60;;
26872;SDS011;14445;53.056;4.804;2022-07-23T12:29:52;0.77;;;0.60;;
26872;SDS011;14445;53.056;4.804;2022-07-23T12:32:22;0.60;;;0.60;;
26872;SDS011;14445;53.056;4.804;2022-07-23T12:34:50;1.75;;;0.70;;
26872;SDS011;14445;53.056;4.804;2022-07-23T12:37:31;0.73;;;0.70;;
26872;SDS011;14445;53.056;4.804;2022-07-23T12:43:07;0.93;;;0.70;;
26872;SDS011;14445;53.056;4.804;2022-07-23T12:45:41;0.60;;;0.60;;
26872;SDS011;14445;53.056;4.804;2022-07-23T12:48:15;0.50;;;0.50;;
26872;SDS011;14445;53.056;4.804;2022-07-23T12:53:21;0.70;;;0.70;;
26872;SDS011;14445;53.056;4.804;2022-07-23T12:55:47;0.93;;;0.80;;
26872;SDS011;14445;53.056;4.804;2022-07-23T12:58:15;0.68;;;0.68;;
26872;SDS011;14445;53.056;4.804;2022-07-23T13:00:52;0.77;;;0.70;;
26872;SDS011;14445;53.056;4.804;2022-07-23T13:06:08;0.70;;;0.70;;
26872;SDS011;14445;53.056;4.804;2022-07-23T13:08:36;0.80;;;0.80;;
26872;SDS011;14445;53.056;4.804;2022-07-23T13:11:03;0.70;;;0.70;;
26872;SDS011;14445;53.056;4.804;2022-07-23T13:13:30;1.25;;;0.90;;
26872;SDS011;14445;53.056;4.804;2022-07-23T13:15:57;0.90;;;0.80;;
26872;SDS011;14445;53.056;4.804;2022-07-23T13:18:23;0.80;;;0.70;;
26872;SDS011;14445;53.056;4.804;2022-07-23T13:20:49;1.15;;;0.70;;
26872;SDS011;14445;53.056;4.804;2022-07-23T13:23:15;1.73;;;0.80;;
26872;SDS011;14445;53.056;4.804;2022-07-23T13:25:41;0.70;;;0.70;;
26872;SDS011;14445;53.056;4.804;2022-07-23T13:28:08;1.15;;;0.80;;
26872;SDS011;14445;53.056;4.804;2022-07-23T13:30:34;0.70;;;0.70;;
26872;SDS011;14445;53.056;4.804;2022-07-23T13:33:00;0.68;;;0.68;;
26872;SDS011;14445;53.056;4.804;2022-07-23T13:35:28;0.70;;;0.70;;
26872;SDS011;14445;53.056;4.804;2022-07-23T13:37:53;1.38;;;0.68;;
26872;SDS011;14445;53.056;4.804;2022-07-23T13:40:19;0.60;;;0.60;;
26872;SDS011;14445;53.056;4.804;2022-07-23T13:42:44;0.60;;;0.60;;
26872;SDS011;14445;53.056;4.804;2022-07-23T13:45:10;0.60;;;0.60;;
26872;SDS011;14445;53.056;4.804;2022-07-23T13:47:35;0.60;;;0.60;;
26872;SDS011;14445;53.056;4.804;2022-07-23T13:50:01;0.90;;;0.70;;
26872;SDS011;14445;53.056;4.804;2022-07-23T13:52:27;0.57;;;0.57;;
26872;SDS011;14445;53.056;4.804;2022-07-23T13:54:53;0.70;;;0.70;;
26872;SDS011;14445;53.056;4.804;2022-07-23T13:57:18;0.70;;;0.60;;
26872;SDS011;14445;53.056;4.804;2022-07-23T13:59:44;0.95;;;0.60;;
26872;SDS011;14445;53.056;4.804;2022-07-23T14:02:09;0.63;;;0.63;;
26872;SDS011;14445;53.056;4.804;2022-07-23T14:04:37;0.85;;;0.70;;
26872;SDS011;14445;53.056;4.804;2022-07-23T14:07:03;0.60;;;0.60;;
26872;SDS011;14445;53.056;4.804;2022-07-23T14:09:28;0.50;;;0.50;;
26872;SDS011;14445;53.056;4.804;2022-07-23T14:11:55;0.60;;;0.60;;
26872;SDS011;14445;53.056;4.804;2022-07-23T14:14:20;0.60;;;0.60;;
26872;SDS011;14445;53.056;4.804;2022-07-23T14:16:46;0.60;;;0.60;;
26872;SDS011;14445;53.056;4.804;2022-07-23T14:19:11;0.50;;;0.50;;
26872;SDS011;14445;53.056;4.804;2022-07-23T14:21:37;0.82;;;0.73;;
26872;SDS011;14445;53.056;4.804;2022-07-23T14:24:03;0.80;;;0.80;;
26872;SDS011;14445;53.056;4.804;2022-07-23T14:26:29;0.60;;;0.60;;
26872;SDS011;14445;53.056;4.804;2022-07-23T14:28:55;1.00;;;0.70;;
26872;SDS011;14445;53.056;4.804;2022-07-23T14:31:21;0.50;;;0.50;;
26872;SDS011;14445;53.056;4.804;2022-07-23T14:33:47;0.70;;;0.70;;
26872;SDS011;14445;53.056;4.804;2022-07-23T14:36:13;0.60;;;0.60;;
26872;SDS011;14445;53.056;4.804;2022-07-23T14:38:38;0.60;;;0.60;;
26872;SDS011;14445;53.056;4.804;2022-07-23T14:41:04;0.98;;;0.70;;
26872;SDS011;14445;53.056;4.804;2022-07-23T14:43:31;0.70;;;0.70;;
26872;SDS011;14445;53.056;4.804;2022-07-23T14:45:57;0.75;;;0.70;;
26872;SDS011;14445;53.056;4.804;2022-07-23T14:48:23;0.65;;;0.65;;
26872;SDS011;14445;53.056;4.804;2022-07-23T14:50:48;0.90;;;0.70;;
26872;SDS011;14445;53.056;4.804;2022-07-23T14:53:14;0.75;;;0.73;;
26872;SDS011;14445;53.056;4.804;2022-07-23T14:55:39;0.70;;;0.70;;
26872;SDS011;14445;53.056;4.804;2022-07-23T14:58:05;0.90;;;0.63;;
26872;SDS011;14445;53.056;4.804;2022-07-23T15:00:30;0.73;;;0.73;;
26872;SDS011;14445;53.056;4.804;2022-07-23T15:02:56;0.75;;;0.75;;
26872;SDS011;14445;53.056;4.804;2022-07-23T15:05:22;0.70;;;0.70;;
26872;SDS011;14445;53.056;4.804;2022-07-23T15:07:47;0.68;;;0.68;;
26872;SDS011;14445;53.056;4.804;2022-07-23T15:10:13;0.75;;;0.60;;
26872;SDS011;14445;53.056;4.804;2022-07-23T15:12:39;0.88;;;0.80;;
26872;SDS011;14445;53.056;4.804;2022-07-23T15:15:04;0.82;;;0.80;;
26872;SDS011;14445;53.056;4.804;2022-07-23T15:17:30;0.93;;;0.70;;
26872;SDS011;14445;53.056;4.804;2022-07-23T15:19:57;0.60;;;0.60;;
26872;SDS011;14445;53.056;4.804;2022-07-23T15:22:23;0.70;;;0.70;;
26872;SDS011;14445;53.056;4.804;2022-07-23T15:24:48;0.70;;;0.70;;
26872;SDS011;14445;53.056;4.804;2022-07-23T15:27:14;0.60;;;0.60;;
26872;SDS011;14445;53.056;4.804;2022-07-23T15:29:41;0.88;;;0.70;;
26872;SDS011;14445;53.056;4.804;2022-07-23T15:32:06;0.98;;;0.70;;
26872;SDS011;14445;53.056;4.804;2022-07-23T15:34:32;0.70;;;0.70;;
26872;SDS011;14445;53.056;4.804;2022-07-23T15:37:01;0.70;;;0.70;;